sensor_id;sensor_type;location;lat;lon;timestamp;P1;durP1;ratioP1;P2;durP2;ratioP2
4889;SDS011;2459;42.268;23.112;2022-10-13T00:02:23;31.20;;;12.23;;
4889;SDS011;2459;42.268;23.112;2022-10-13T00:04:49;25.20;;;14.00;;
4889;SDS011;2459;42.268;23.112;2022-10-13T00:07:16;18.27;;;10.80;;
4889;SDS011;2459;42.268;23.112;2022-10-13T00:09:42;22.50;;;12.50;;
4889;SDS011;2459;42.268;23.112;2022-10-13T00:12:09;30.17;;;12.80;;
4889;SDS011;2459;42.268;23.112;2022-10-13T00:14:35;25.20;;;11.47;;
4889;SDS011;2459;42.268;23.112;2022-10-13T00:17:03;25.17;;;13.40;;
4889;SDS011;2459;42.268;23.112;2022-10-13T00:19:30;23.00;;;14.07;;
4889;SDS011;2459;42.268;23.112;2022-10-13T00:21:57;24.90;;;13.80;;
4889;SDS011;2459;42.268;23.112;2022-10-13T00:24:23;24.07;;;12.60;;
4889;SDS011;2459;42.268;23.112;2022-10-13T00:26:50;24.10;;;13.27;;
4889;SDS011;2459;42.268;23.112;2022-10-13T00:29:17;27.27;;;13.67;;
4889;SDS011;2459;42.268;23.112;2022-10-13T00:31:44;29.50;;;14.30;;
4889;SDS011;2459;42.268;23.112;2022-10-13T00:34:11;28.43;;;15.30;;
4889;SDS011;2459;42.268;23.112;2022-10-13T00:36:38;25.27;;;14.30;;
4889;SDS011;2459;42.268;23.112;2022-10-13T00:39:04;29.67;;;13.60;;
4889;SDS011;2459;42.268;23.112;2022-10-13T00:41:31;34.47;;;14.20;;
4889;SDS011;2459;42.268;23.112;2022-10-13T00:43:58;22.83;;;12.80;;
4889;SDS011;2459;42.268;23.112;2022-10-13T00:46:26;32.07;;;14.23;;
4889;SDS011;2459;42.268;23.112;2022-10-13T00:48:53;29.73;;;15.10;;
4889;SDS011;2459;42.268;23.112;2022-10-13T00:51:23;24.73;;;13.03;;
4889;SDS011;2459;42.268;23.112;2022-10-13T00:53:51;33.30;;;16.17;;
4889;SDS011;2459;42.268;23.112;2022-10-13T00:56:19;36.43;;;14.53;;
4889;SDS011;2459;42.268;23.112;2022-10-13T00:58:46;25.67;;;15.90;;
4889;SDS011;2459;42.268;23.112;2022-10-13T01:01:13;27.60;;;14.20;;
4889;SDS011;2459;42.268;23.112;2022-10-13T01:03:40;44.33;;;18.90;;
4889;SDS011;2459;42.268;23.112;2022-10-13T01:06:06;44.43;;;19.63;;
4889;SDS011;2459;42.268;23.112;2022-10-13T01:08:35;33.63;;;16.60;;
4889;SDS011;2459;42.268;23.112;2022-10-13T01:11:06;28.63;;;16.13;;
4889;SDS011;2459;42.268;23.112;2022-10-13T01:13:37;32.50;;;14.97;;
4889;SDS011;2459;42.268;23.112;2022-10-13T01:16:08;28.17;;;15.73;;
4889;SDS011;2459;42.268;23.112;2022-10-13T01:18:40;29.30;;;17.10;;
4889;SDS011;2459;42.268;23.112;2022-10-13T01:21:10;28.30;;;14.00;;
4889;SDS011;2459;42.268;23.112;2022-10-13T01:26:36;36.03;;;15.40;;
4889;SDS011;2459;42.268;23.112;2022-10-13T01:29:10;26.10;;;14.60;;
4889;SDS011;2459;42.268;23.112;2022-10-13T01:31:40;34.73;;;13.53;;
4889;SDS011;2459;42.268;23.112;2022-10-13T01:34:08;31.20;;;14.53;;
4889;SDS011;2459;42.268;23.112;2022-10-13T01:36:37;30.47;;;15.70;;
4889;SDS011;2459;42.268;23.112;2022-10-13T01:39:06;22.93;;;13.83;;
4889;SDS011;2459;42.268;23.112;2022-10-13T01:41:35;29.93;;;15.10;;
4889;SDS011;2459;42.268;23.112;2022-10-13T01:44:04;24.80;;;13.23;;
4889;SDS011;2459;42.268;23.112;2022-10-13T01:46:31;31.13;;;15.27;;
4889;SDS011;2459;42.268;23.112;2022-10-13T01:49:02;27.83;;;15.07;;
4889;SDS011;2459;42.268;23.112;2022-10-13T01:51:29;26.40;;;14.23;;
4889;SDS011;2459;42.268;23.112;2022-10-13T01:53:56;35.10;;;16.90;;
4889;SDS011;2459;42.268;23.112;2022-10-13T01:56:23;26.63;;;15.80;;
4889;SDS011;2459;42.268;23.112;2022-10-13T01:58:49;31.37;;;15.40;;
4889;SDS011;2459;42.268;23.112;2022-10-13T02:01:21;31.43;;;15.17;;
4889;SDS011;2459;42.268;23.112;2022-10-13T02:03:55;31.87;;;15.90;;
4889;SDS011;2459;42.268;23.112;2022-10-13T02:06:24;26.40;;;13.57;;
4889;SDS011;2459;42.268;23.112;2022-10-13T02:08:55;46.03;;;20.40;;
4889;SDS011;2459;42.268;23.112;2022-10-13T02:11:23;44.03;;;16.67;;
4889;SDS011;2459;42.268;23.112;2022-10-13T02:13:51;26.73;;;14.40;;
4889;SDS011;2459;42.268;23.112;2022-10-13T02:16:19;27.10;;;14.00;;
4889;SDS011;2459;42.268;23.112;2022-10-13T02:18:47;28.30;;;15.40;;
4889;SDS011;2459;42.268;23.112;2022-10-13T02:21:14;24.27;;;14.07;;
4889;SDS011;2459;42.268;23.112;2022-10-13T02:23:42;28.13;;;15.33;;
4889;SDS011;2459;42.268;23.112;2022-10-13T02:26:09;31.90;;;15.43;;
4889;SDS011;2459;42.268;23.112;2022-10-13T02:28:36;25.27;;;14.40;;
4889;SDS011;2459;42.268;23.112;2022-10-13T02:31:03;26.50;;;15.07;;
4889;SDS011;2459;42.268;23.112;2022-10-13T02:33:31;27.97;;;14.27;;
4889;SDS011;2459;42.268;23.112;2022-10-13T02:35:57;27.03;;;14.73;;
4889;SDS011;2459;42.268;23.112;2022-10-13T02:38:24;29.13;;;14.60;;
4889;SDS011;2459;42.268;23.112;2022-10-13T02:40:51;28.43;;;14.80;;
4889;SDS011;2459;42.268;23.112;2022-10-13T02:43:18;23.60;;;13.40;;
4889;SDS011;2459;42.268;23.112;2022-10-13T02:45:45;27.60;;;13.90;;
4889;SDS011;2459;42.268;23.112;2022-10-13T02:48:11;21.37;;;13.13;;
4889;SDS011;2459;42.268;23.112;2022-10-13T02:50:38;30.70;;;14.63;;
4889;SDS011;2459;42.268;23.112;2022-10-13T02:53:04;26.47;;;13.83;;
4889;SDS011;2459;42.268;23.112;2022-10-13T02:55:31;25.87;;;14.67;;
4889;SDS011;2459;42.268;23.112;2022-10-13T02:57:59;28.23;;;16.07;;
4889;SDS011;2459;42.268;23.112;2022-10-13T03:00:25;28.53;;;14.80;;
4889;SDS011;2459;42.268;23.112;2022-10-13T03:02:52;25.33;;;12.90;;
4889;SDS011;2459;42.268;23.112;2022-10-13T03:05:18;25.30;;;14.13;;
4889;SDS011;2459;42.268;23.112;2022-10-13T03:07:45;37.33;;;15.50;;
4889;SDS011;2459;42.268;23.112;2022-10-13T03:10:12;24.70;;;13.47;;
4889;SDS011;2459;42.268;23.112;2022-10-13T03:12:38;29.80;;;13.57;;
4889;SDS011;2459;42.268;23.112;2022-10-13T03:15:07;23.57;;;13.33;;
4889;SDS011;2459;42.268;23.112;2022-10-13T03:17:33;28.13;;;14.10;;
4889;SDS011;2459;42.268;23.112;2022-10-13T03:20:00;25.80;;;15.60;;
4889;SDS011;2459;42.268;23.112;2022-10-13T03:22:26;27.73;;;15.37;;
4889;SDS011;2459;42.268;23.112;2022-10-13T03:24:53;27.63;;;14.63;;
4889;SDS011;2459;42.268;23.112;2022-10-13T03:27:19;28.23;;;14.83;;
4889;SDS011;2459;42.268;23.112;2022-10-13T03:29:46;38.63;;;15.67;;
4889;SDS011;2459;42.268;23.112;2022-10-13T03:32:14;27.70;;;15.13;;
4889;SDS011;2459;42.268;23.112;2022-10-13T03:34:41;32.07;;;14.60;;
4889;SDS011;2459;42.268;23.112;2022-10-13T03:37:07;26.37;;;13.97;;
4889;SDS011;2459;42.268;23.112;2022-10-13T03:39:34;25.40;;;14.23;;
4889;SDS011;2459;42.268;23.112;2022-10-13T03:42:00;26.80;;;14.80;;
4889;SDS011;2459;42.268;23.112;2022-10-13T03:44:27;25.67;;;14.30;;
4889;SDS011;2459;42.268;23.112;2022-10-13T03:46:53;30.90;;;14.63;;
4889;SDS011;2459;42.268;23.112;2022-10-13T03:49:21;26.13;;;15.00;;
4889;SDS011;2459;42.268;23.112;2022-10-13T03:51:47;24.13;;;13.80;;
4889;SDS011;2459;42.268;23.112;2022-10-13T03:54:14;25.73;;;13.40;;
4889;SDS011;2459;42.268;23.112;2022-10-13T03:56:41;31.83;;;13.30;;
4889;SDS011;2459;42.268;23.112;2022-10-13T03:59:08;28.93;;;14.40;;
4889;SDS011;2459;42.268;23.112;2022-10-13T04:01:35;35.37;;;16.23;;
4889;SDS011;2459;42.268;23.112;2022-10-13T04:04:02;27.90;;;14.50;;
4889;SDS011;2459;42.268;23.112;2022-10-13T04:06:30;20.80;;;11.90;;
4889;SDS011;2459;42.268;23.112;2022-10-13T04:08:56;29.37;;;16.27;;
4889;SDS011;2459;42.268;23.112;2022-10-13T04:11:23;37.87;;;14.93;;
4889;SDS011;2459;42.268;23.112;2022-10-13T04:13:50;21.40;;;13.00;;
4889;SDS011;2459;42.268;23.112;2022-10-13T04:16:18;29.00;;;14.73;;
4889;SDS011;2459;42.268;23.112;2022-10-13T04:18:44;38.43;;;15.03;;
4889;SDS011;2459;42.268;23.112;2022-10-13T04:21:15;34.60;;;16.10;;
4889;SDS011;2459;42.268;23.112;2022-10-13T04:23:42;29.80;;;15.87;;
4889;SDS011;2459;42.268;23.112;2022-10-13T04:26:13;29.43;;;15.10;;
4889;SDS011;2459;42.268;23.112;2022-10-13T04:28:41;33.07;;;15.87;;
4889;SDS011;2459;42.268;23.112;2022-10-13T04:31:07;34.80;;;16.73;;
4889;SDS011;2459;42.268;23.112;2022-10-13T04:33:34;31.60;;;14.83;;
4889;SDS011;2459;42.268;23.112;2022-10-13T04:36:02;33.77;;;15.40;;
4889;SDS011;2459;42.268;23.112;2022-10-13T04:38:28;42.43;;;18.87;;
4889;SDS011;2459;42.268;23.112;2022-10-13T04:40:56;28.73;;;15.83;;
4889;SDS011;2459;42.268;23.112;2022-10-13T04:43:23;25.37;;;15.53;;
4889;SDS011;2459;42.268;23.112;2022-10-13T04:45:49;26.30;;;14.60;;
4889;SDS011;2459;42.268;23.112;2022-10-13T04:48:16;28.30;;;15.03;;
4889;SDS011;2459;42.268;23.112;2022-10-13T04:50:42;27.93;;;13.43;;
4889;SDS011;2459;42.268;23.112;2022-10-13T04:53:09;32.63;;;15.10;;
4889;SDS011;2459;42.268;23.112;2022-10-13T04:55:35;40.53;;;16.47;;
4889;SDS011;2459;42.268;23.112;2022-10-13T04:58:03;36.83;;;14.17;;
4889;SDS011;2459;42.268;23.112;2022-10-13T05:00:29;30.30;;;14.60;;
4889;SDS011;2459;42.268;23.112;2022-10-13T05:02:56;26.13;;;12.90;;
4889;SDS011;2459;42.268;23.112;2022-10-13T05:05:23;26.37;;;14.60;;
4889;SDS011;2459;42.268;23.112;2022-10-13T05:07:49;24.20;;;12.93;;
4889;SDS011;2459;42.268;23.112;2022-10-13T05:10:16;26.60;;;13.70;;
4889;SDS011;2459;42.268;23.112;2022-10-13T05:12:43;31.33;;;13.33;;
4889;SDS011;2459;42.268;23.112;2022-10-13T05:15:14;24.87;;;13.30;;
4889;SDS011;2459;42.268;23.112;2022-10-13T05:17:40;29.03;;;11.93;;
4889;SDS011;2459;42.268;23.112;2022-10-13T05:20:07;33.03;;;15.00;;
4889;SDS011;2459;42.268;23.112;2022-10-13T05:22:34;25.80;;;13.87;;
4889;SDS011;2459;42.268;23.112;2022-10-13T05:25:01;23.03;;;11.83;;
4889;SDS011;2459;42.268;23.112;2022-10-13T05:27:27;27.37;;;14.70;;
4889;SDS011;2459;42.268;23.112;2022-10-13T05:29:54;32.80;;;15.50;;
4889;SDS011;2459;42.268;23.112;2022-10-13T05:32:22;35.13;;;13.90;;
4889;SDS011;2459;42.268;23.112;2022-10-13T05:34:48;31.27;;;15.17;;
4889;SDS011;2459;42.268;23.112;2022-10-13T05:37:14;28.80;;;13.07;;
4889;SDS011;2459;42.268;23.112;2022-10-13T05:39:42;33.53;;;15.57;;
4889;SDS011;2459;42.268;23.112;2022-10-13T05:42:09;31.07;;;15.47;;
4889;SDS011;2459;42.268;23.112;2022-10-13T05:44:35;25.10;;;13.43;;
4889;SDS011;2459;42.268;23.112;2022-10-13T05:47:02;31.80;;;14.30;;
4889;SDS011;2459;42.268;23.112;2022-10-13T05:49:30;26.40;;;14.30;;
4889;SDS011;2459;42.268;23.112;2022-10-13T05:51:57;22.67;;;13.13;;
4889;SDS011;2459;42.268;23.112;2022-10-13T05:54:26;27.23;;;11.80;;
4889;SDS011;2459;42.268;23.112;2022-10-13T05:56:56;21.10;;;12.40;;
4889;SDS011;2459;42.268;23.112;2022-10-13T05:59:25;23.77;;;13.20;;
4889;SDS011;2459;42.268;23.112;2022-10-13T06:01:52;22.47;;;12.97;;
4889;SDS011;2459;42.268;23.112;2022-10-13T06:04:20;22.50;;;12.00;;
4889;SDS011;2459;42.268;23.112;2022-10-13T06:06:49;24.20;;;13.83;;
4889;SDS011;2459;42.268;23.112;2022-10-13T06:09:16;25.50;;;12.27;;
4889;SDS011;2459;42.268;23.112;2022-10-13T06:11:43;24.70;;;12.53;;
4889;SDS011;2459;42.268;23.112;2022-10-13T06:14:10;22.37;;;11.40;;
4889;SDS011;2459;42.268;23.112;2022-10-13T06:16:36;22.73;;;11.83;;
4889;SDS011;2459;42.268;23.112;2022-10-13T06:19:03;16.90;;;11.30;;
4889;SDS011;2459;42.268;23.112;2022-10-13T06:21:30;30.03;;;13.13;;
4889;SDS011;2459;42.268;23.112;2022-10-13T06:23:58;16.23;;;9.87;;
4889;SDS011;2459;42.268;23.112;2022-10-13T06:26:25;19.83;;;11.40;;
4889;SDS011;2459;42.268;23.112;2022-10-13T06:28:52;25.77;;;11.77;;
4889;SDS011;2459;42.268;23.112;2022-10-13T06:31:18;16.80;;;11.37;;
4889;SDS011;2459;42.268;23.112;2022-10-13T06:33:45;17.37;;;11.20;;
4889;SDS011;2459;42.268;23.112;2022-10-13T06:36:13;29.00;;;17.37;;
4889;SDS011;2459;42.268;23.112;2022-10-13T06:38:39;23.73;;;11.20;;
4889;SDS011;2459;42.268;23.112;2022-10-13T06:41:07;17.23;;;10.17;;
4889;SDS011;2459;42.268;23.112;2022-10-13T06:43:34;25.17;;;10.83;;
4889;SDS011;2459;42.268;23.112;2022-10-13T06:46:00;19.03;;;9.90;;
4889;SDS011;2459;42.268;23.112;2022-10-13T06:48:27;23.50;;;10.50;;
4889;SDS011;2459;42.268;23.112;2022-10-13T06:50:53;13.77;;;9.47;;
4889;SDS011;2459;42.268;23.112;2022-10-13T06:53:20;17.70;;;10.53;;
4889;SDS011;2459;42.268;23.112;2022-10-13T06:55:47;16.30;;;9.40;;
4889;SDS011;2459;42.268;23.112;2022-10-13T06:58:15;14.53;;;9.70;;
4889;SDS011;2459;42.268;23.112;2022-10-13T07:00:41;20.70;;;10.47;;
4889;SDS011;2459;42.268;23.112;2022-10-13T07:03:09;19.20;;;10.63;;
4889;SDS011;2459;42.268;23.112;2022-10-13T07:05:36;22.50;;;11.23;;
4889;SDS011;2459;42.268;23.112;2022-10-13T07:08:02;16.87;;;10.07;;
4889;SDS011;2459;42.268;23.112;2022-10-13T07:10:29;20.77;;;11.40;;
4889;SDS011;2459;42.268;23.112;2022-10-13T07:12:56;22.70;;;11.73;;
4889;SDS011;2459;42.268;23.112;2022-10-13T07:15:24;19.90;;;10.33;;
4889;SDS011;2459;42.268;23.112;2022-10-13T07:17:50;18.80;;;11.03;;
4889;SDS011;2459;42.268;23.112;2022-10-13T07:20:18;21.23;;;12.47;;
4889;SDS011;2459;42.268;23.112;2022-10-13T07:22:44;18.40;;;12.30;;
4889;SDS011;2459;42.268;23.112;2022-10-13T07:25:11;16.83;;;10.70;;
4889;SDS011;2459;42.268;23.112;2022-10-13T07:27:37;24.80;;;12.93;;
4889;SDS011;2459;42.268;23.112;2022-10-13T07:30:05;18.80;;;11.13;;
4889;SDS011;2459;42.268;23.112;2022-10-13T07:32:34;22.63;;;11.77;;
4889;SDS011;2459;42.268;23.112;2022-10-13T07:35:01;21.57;;;12.70;;
4889;SDS011;2459;42.268;23.112;2022-10-13T07:37:28;17.90;;;11.63;;
4889;SDS011;2459;42.268;23.112;2022-10-13T07:39:54;22.03;;;11.97;;
4889;SDS011;2459;42.268;23.112;2022-10-13T07:42:21;21.47;;;12.70;;
4889;SDS011;2459;42.268;23.112;2022-10-13T07:44:47;28.03;;;12.40;;
4889;SDS011;2459;42.268;23.112;2022-10-13T07:47:14;25.80;;;14.33;;
4889;SDS011;2459;42.268;23.112;2022-10-13T07:49:42;18.50;;;12.00;;
4889;SDS011;2459;42.268;23.112;2022-10-13T07:52:08;18.03;;;11.67;;
4889;SDS011;2459;42.268;23.112;2022-10-13T07:54:35;20.23;;;12.73;;
4889;SDS011;2459;42.268;23.112;2022-10-13T07:57:02;25.33;;;13.23;;
4889;SDS011;2459;42.268;23.112;2022-10-13T07:59:30;22.13;;;11.73;;
4889;SDS011;2459;42.268;23.112;2022-10-13T08:01:57;23.93;;;12.97;;
4889;SDS011;2459;42.268;23.112;2022-10-13T08:04:27;27.20;;;15.00;;
4889;SDS011;2459;42.268;23.112;2022-10-13T08:06:55;35.53;;;16.80;;
4889;SDS011;2459;42.268;23.112;2022-10-13T08:09:22;32.27;;;15.20;;
4889;SDS011;2459;42.268;23.112;2022-10-13T08:11:49;27.20;;;13.83;;
4889;SDS011;2459;42.268;23.112;2022-10-13T08:14:15;21.53;;;12.23;;
4889;SDS011;2459;42.268;23.112;2022-10-13T08:16:42;21.50;;;12.90;;
4889;SDS011;2459;42.268;23.112;2022-10-13T08:19:09;25.03;;;12.97;;
4889;SDS011;2459;42.268;23.112;2022-10-13T08:21:36;27.43;;;13.80;;
4889;SDS011;2459;42.268;23.112;2022-10-13T08:24:05;28.90;;;15.23;;
4889;SDS011;2459;42.268;23.112;2022-10-13T08:26:31;26.10;;;15.13;;
4889;SDS011;2459;42.268;23.112;2022-10-13T08:28:58;22.67;;;12.40;;
4889;SDS011;2459;42.268;23.112;2022-10-13T08:31:24;31.00;;;15.40;;
4889;SDS011;2459;42.268;23.112;2022-10-13T08:33:51;23.17;;;13.73;;
4889;SDS011;2459;42.268;23.112;2022-10-13T08:36:18;20.50;;;12.00;;
4889;SDS011;2459;42.268;23.112;2022-10-13T08:38:45;24.90;;;13.20;;
4889;SDS011;2459;42.268;23.112;2022-10-13T08:41:17;24.70;;;14.47;;
4889;SDS011;2459;42.268;23.112;2022-10-13T08:43:45;25.80;;;13.97;;
4889;SDS011;2459;42.268;23.112;2022-10-13T08:46:13;21.83;;;13.10;;
4889;SDS011;2459;42.268;23.112;2022-10-13T08:48:41;24.00;;;11.17;;
4889;SDS011;2459;42.268;23.112;2022-10-13T08:51:10;22.77;;;12.20;;
4889;SDS011;2459;42.268;23.112;2022-10-13T08:53:38;23.90;;;11.67;;
4889;SDS011;2459;42.268;23.112;2022-10-13T08:56:06;20.33;;;9.70;;
4889;SDS011;2459;42.268;23.112;2022-10-13T08:58:36;17.93;;;10.80;;
4889;SDS011;2459;42.268;23.112;2022-10-13T09:01:10;18.83;;;11.00;;
4889;SDS011;2459;42.268;23.112;2022-10-13T09:03:39;18.13;;;11.57;;
4889;SDS011;2459;42.268;23.112;2022-10-13T09:06:10;20.53;;;10.67;;
4889;SDS011;2459;42.268;23.112;2022-10-13T09:08:39;16.80;;;10.83;;
4889;SDS011;2459;42.268;23.112;2022-10-13T09:11:08;17.07;;;9.10;;
4889;SDS011;2459;42.268;23.112;2022-10-13T09:13:36;17.60;;;10.03;;
4889;SDS011;2459;42.268;23.112;2022-10-13T09:16:02;18.10;;;9.67;;
4889;SDS011;2459;42.268;23.112;2022-10-13T09:18:30;19.40;;;10.77;;
4889;SDS011;2459;42.268;23.112;2022-10-13T09:21:09;25.93;;;10.93;;
4889;SDS011;2459;42.268;23.112;2022-10-13T09:23:36;20.13;;;10.23;;
4889;SDS011;2459;42.268;23.112;2022-10-13T09:26:05;15.97;;;9.73;;
4889;SDS011;2459;42.268;23.112;2022-10-13T09:28:33;29.50;;;11.00;;
4889;SDS011;2459;42.268;23.112;2022-10-13T09:31:01;19.17;;;11.50;;
4889;SDS011;2459;42.268;23.112;2022-10-13T09:33:29;21.23;;;12.27;;
4889;SDS011;2459;42.268;23.112;2022-10-13T09:36:06;22.93;;;12.50;;
4889;SDS011;2459;42.268;23.112;2022-10-13T09:38:35;29.50;;;10.30;;
4889;SDS011;2459;42.268;23.112;2022-10-13T09:41:02;20.27;;;10.50;;
4889;SDS011;2459;42.268;23.112;2022-10-13T09:43:31;22.93;;;12.53;;
4889;SDS011;2459;42.268;23.112;2022-10-13T09:45:58;18.70;;;12.07;;
4889;SDS011;2459;42.268;23.112;2022-10-13T09:48:26;18.77;;;11.23;;
4889;SDS011;2459;42.268;23.112;2022-10-13T09:50:54;22.53;;;13.33;;
4889;SDS011;2459;42.268;23.112;2022-10-13T09:53:23;22.07;;;12.50;;
4889;SDS011;2459;42.268;23.112;2022-10-13T09:58:32;29.40;;;13.13;;
4889;SDS011;2459;42.268;23.112;2022-10-13T10:00:59;20.70;;;11.00;;
4889;SDS011;2459;42.268;23.112;2022-10-13T10:03:28;21.93;;;12.63;;
4889;SDS011;2459;42.268;23.112;2022-10-13T10:05:58;22.43;;;10.77;;
4889;SDS011;2459;42.268;23.112;2022-10-13T10:08:26;20.40;;;12.47;;
4889;SDS011;2459;42.268;23.112;2022-10-13T10:10:58;24.37;;;13.03;;
4889;SDS011;2459;42.268;23.112;2022-10-13T10:13:28;30.33;;;15.50;;
4889;SDS011;2459;42.268;23.112;2022-10-13T10:15:57;41.43;;;14.07;;
4889;SDS011;2459;42.268;23.112;2022-10-13T10:18:30;26.70;;;13.50;;
4889;SDS011;2459;42.268;23.112;2022-10-13T10:21:04;24.10;;;13.47;;
4889;SDS011;2459;42.268;23.112;2022-10-13T10:23:42;34.83;;;13.73;;
4889;SDS011;2459;42.268;23.112;2022-10-13T10:26:21;30.10;;;13.53;;
4889;SDS011;2459;42.268;23.112;2022-10-13T10:28:56;25.63;;;13.27;;
4889;SDS011;2459;42.268;23.112;2022-10-13T10:31:34;24.00;;;13.70;;
4889;SDS011;2459;42.268;23.112;2022-10-13T10:34:09;29.87;;;12.43;;
4889;SDS011;2459;42.268;23.112;2022-10-13T10:36:44;25.77;;;13.27;;
4889;SDS011;2459;42.268;23.112;2022-10-13T10:39:18;25.77;;;13.63;;
4889;SDS011;2459;42.268;23.112;2022-10-13T10:41:48;29.13;;;14.80;;
4889;SDS011;2459;42.268;23.112;2022-10-13T10:44:16;23.50;;;12.70;;
4889;SDS011;2459;42.268;23.112;2022-10-13T10:46:46;30.57;;;15.20;;
4889;SDS011;2459;42.268;23.112;2022-10-13T10:49:16;35.87;;;15.00;;
4889;SDS011;2459;42.268;23.112;2022-10-13T10:51:43;37.13;;;14.40;;
4889;SDS011;2459;42.268;23.112;2022-10-13T10:54:25;32.27;;;14.60;;
4889;SDS011;2459;42.268;23.112;2022-10-13T10:56:57;29.87;;;13.83;;
4889;SDS011;2459;42.268;23.112;2022-10-13T10:59:26;25.10;;;13.07;;
4889;SDS011;2459;42.268;23.112;2022-10-13T11:01:59;26.83;;;12.93;;
4889;SDS011;2459;42.268;23.112;2022-10-13T11:07:11;21.90;;;10.67;;
4889;SDS011;2459;42.268;23.112;2022-10-13T11:12:23;27.67;;;11.00;;
4889;SDS011;2459;42.268;23.112;2022-10-13T11:15:00;23.27;;;12.80;;
4889;SDS011;2459;42.268;23.112;2022-10-13T11:17:28;19.67;;;12.47;;
4889;SDS011;2459;42.268;23.112;2022-10-13T11:19:54;22.70;;;12.10;;
4889;SDS011;2459;42.268;23.112;2022-10-13T11:22:23;22.07;;;9.83;;
4889;SDS011;2459;42.268;23.112;2022-10-13T11:24:53;18.07;;;10.27;;
4889;SDS011;2459;42.268;23.112;2022-10-13T11:27:24;20.33;;;9.53;;
4889;SDS011;2459;42.268;23.112;2022-10-13T11:29:52;31.80;;;11.90;;
4889;SDS011;2459;42.268;23.112;2022-10-13T11:35:16;28.53;;;10.50;;
4889;SDS011;2459;42.268;23.112;2022-10-13T11:37:46;19.27;;;10.20;;
4889;SDS011;2459;42.268;23.112;2022-10-13T11:40:15;14.03;;;7.70;;
4889;SDS011;2459;42.268;23.112;2022-10-13T11:48:29;26.30;;;9.70;;
4889;SDS011;2459;42.268;23.112;2022-10-13T11:51:02;20.77;;;8.02;;
4889;SDS011;2459;42.268;23.112;2022-10-13T11:53:33;15.65;;;8.23;;
4889;SDS011;2459;42.268;23.112;2022-10-13T11:56:17;13.02;;;7.38;;
4889;SDS011;2459;42.268;23.112;2022-10-13T11:58:44;10.43;;;7.55;;
4889;SDS011;2459;42.268;23.112;2022-10-13T12:01:11;18.48;;;8.10;;
4889;SDS011;2459;42.268;23.112;2022-10-13T12:03:39;15.18;;;8.48;;
4889;SDS011;2459;42.268;23.112;2022-10-13T12:06:24;20.13;;;11.30;;
4889;SDS011;2459;42.268;23.112;2022-10-13T12:08:58;13.47;;;9.87;;
4889;SDS011;2459;42.268;23.112;2022-10-13T12:11:27;16.40;;;8.10;;
4889;SDS011;2459;42.268;23.112;2022-10-13T12:13:54;17.50;;;8.90;;
4889;SDS011;2459;42.268;23.112;2022-10-13T12:16:21;15.87;;;10.80;;
4889;SDS011;2459;42.268;23.112;2022-10-13T12:18:47;15.93;;;8.87;;
4889;SDS011;2459;42.268;23.112;2022-10-13T12:21:15;21.57;;;11.80;;
4889;SDS011;2459;42.268;23.112;2022-10-13T12:23:44;34.23;;;10.50;;
4889;SDS011;2459;42.268;23.112;2022-10-13T12:26:14;23.20;;;12.27;;
4889;SDS011;2459;42.268;23.112;2022-10-13T12:28:48;15.03;;;11.00;;
4889;SDS011;2459;42.268;23.112;2022-10-13T12:31:16;17.50;;;9.65;;
4889;SDS011;2459;42.268;23.112;2022-10-13T12:33:50;16.65;;;9.55;;
4889;SDS011;2459;42.268;23.112;2022-10-13T12:36:17;17.55;;;8.80;;
4889;SDS011;2459;42.268;23.112;2022-10-13T12:38:44;10.48;;;7.82;;
4889;SDS011;2459;42.268;23.112;2022-10-13T12:41:14;24.17;;;9.18;;
4889;SDS011;2459;42.268;23.112;2022-10-13T12:43:42;23.67;;;7.88;;
4889;SDS011;2459;42.268;23.112;2022-10-13T12:46:08;18.50;;;7.43;;
4889;SDS011;2459;42.268;23.112;2022-10-13T12:48:35;13.10;;;9.07;;
4889;SDS011;2459;42.268;23.112;2022-10-13T12:51:12;16.07;;;11.63;;
4889;SDS011;2459;42.268;23.112;2022-10-13T12:53:40;17.87;;;10.30;;
4889;SDS011;2459;42.268;23.112;2022-10-13T12:56:06;17.20;;;10.43;;
4889;SDS011;2459;42.268;23.112;2022-10-13T12:58:44;19.00;;;10.40;;
4889;SDS011;2459;42.268;23.112;2022-10-13T13:01:20;37.87;;;10.50;;
4889;SDS011;2459;42.268;23.112;2022-10-13T13:03:52;19.37;;;9.47;;
4889;SDS011;2459;42.268;23.112;2022-10-13T13:06:20;12.07;;;8.60;;
4889;SDS011;2459;42.268;23.112;2022-10-13T13:11:32;16.60;;;9.90;;
4889;SDS011;2459;42.268;23.112;2022-10-13T13:16:42;22.97;;;10.03;;
4889;SDS011;2459;42.268;23.112;2022-10-13T13:19:29;20.20;;;10.60;;
4889;SDS011;2459;42.268;23.112;2022-10-13T13:21:56;29.63;;;11.13;;
4889;SDS011;2459;42.268;23.112;2022-10-13T13:24:24;27.83;;;13.20;;
4889;SDS011;2459;42.268;23.112;2022-10-13T13:26:51;25.37;;;14.40;;
4889;SDS011;2459;42.268;23.112;2022-10-13T13:29:18;23.20;;;10.70;;
4889;SDS011;2459;42.268;23.112;2022-10-13T13:31:46;21.77;;;12.10;;
4889;SDS011;2459;42.268;23.112;2022-10-13T13:34:13;24.43;;;13.53;;
4889;SDS011;2459;42.268;23.112;2022-10-13T13:36:39;26.03;;;11.40;;
4889;SDS011;2459;42.268;23.112;2022-10-13T13:39:09;22.27;;;11.30;;
4889;SDS011;2459;42.268;23.112;2022-10-13T13:41:37;23.50;;;12.70;;
4889;SDS011;2459;42.268;23.112;2022-10-13T13:44:04;27.57;;;13.13;;
4889;SDS011;2459;42.268;23.112;2022-10-13T13:46:30;23.83;;;12.97;;
4889;SDS011;2459;42.268;23.112;2022-10-13T13:48:58;31.97;;;15.23;;
4889;SDS011;2459;42.268;23.112;2022-10-13T13:51:26;30.43;;;18.47;;
4889;SDS011;2459;42.268;23.112;2022-10-13T13:53:52;23.30;;;13.93;;
4889;SDS011;2459;42.268;23.112;2022-10-13T13:56:19;26.40;;;14.33;;
4889;SDS011;2459;42.268;23.112;2022-10-13T13:58:46;34.43;;;16.63;;
4889;SDS011;2459;42.268;23.112;2022-10-13T14:01:12;26.63;;;13.93;;
4889;SDS011;2459;42.268;23.112;2022-10-13T14:03:39;25.47;;;13.30;;
4889;SDS011;2459;42.268;23.112;2022-10-13T14:06:13;25.40;;;15.10;;
4889;SDS011;2459;42.268;23.112;2022-10-13T14:08:42;36.17;;;15.57;;
4889;SDS011;2459;42.268;23.112;2022-10-13T14:11:08;24.00;;;13.93;;
4889;SDS011;2459;42.268;23.112;2022-10-13T14:13:35;26.20;;;15.83;;
4889;SDS011;2459;42.268;23.112;2022-10-13T14:16:02;28.93;;;14.13;;
4889;SDS011;2459;42.268;23.112;2022-10-13T14:18:29;28.77;;;15.57;;
4889;SDS011;2459;42.268;23.112;2022-10-13T14:20:56;29.70;;;15.60;;
4889;SDS011;2459;42.268;23.112;2022-10-13T14:23:24;34.67;;;16.97;;
4889;SDS011;2459;42.268;23.112;2022-10-13T14:25:50;27.00;;;14.10;;
4889;SDS011;2459;42.268;23.112;2022-10-13T14:28:17;40.67;;;15.17;;
4889;SDS011;2459;42.268;23.112;2022-10-13T14:30:43;31.40;;;15.37;;
4889;SDS011;2459;42.268;23.112;2022-10-13T14:33:10;30.07;;;15.47;;
4889;SDS011;2459;42.268;23.112;2022-10-13T14:35:36;26.10;;;15.57;;
4889;SDS011;2459;42.268;23.112;2022-10-13T14:38:03;29.30;;;16.57;;
4889;SDS011;2459;42.268;23.112;2022-10-13T14:40:31;29.57;;;16.17;;
4889;SDS011;2459;42.268;23.112;2022-10-13T14:42:57;49.67;;;16.63;;
4889;SDS011;2459;42.268;23.112;2022-10-13T14:45:24;43.47;;;15.90;;
4889;SDS011;2459;42.268;23.112;2022-10-13T14:47:51;48.57;;;15.40;;
4889;SDS011;2459;42.268;23.112;2022-10-13T14:50:18;26.87;;;16.13;;
4889;SDS011;2459;42.268;23.112;2022-10-13T14:52:44;31.53;;;14.20;;
4889;SDS011;2459;42.268;23.112;2022-10-13T14:55:11;29.37;;;16.70;;
4889;SDS011;2459;42.268;23.112;2022-10-13T14:57:39;29.40;;;15.40;;
4889;SDS011;2459;42.268;23.112;2022-10-13T15:00:06;31.90;;;16.43;;
4889;SDS011;2459;42.268;23.112;2022-10-13T15:02:34;39.13;;;15.10;;
4889;SDS011;2459;42.268;23.112;2022-10-13T15:05:01;30.70;;;16.90;;
4889;SDS011;2459;42.268;23.112;2022-10-13T15:07:27;36.40;;;16.93;;